Webcam Flughafen St.Gallen-Altenrhein

Live-Bilder und Zeitraffer LSZR / ACH.

 

Live aus Altenrhein
LIVE
LSZR 190420Z AUTO VRB02KT 9000 NCD M02/M03 Q1021
Zeitraffer heute
2019-02-19 00:14:49
LSZR 182250Z AUTO VRB02KT CAVOK M01/M03 Q1020
Zeitraffer gestern
2019-02-18 00:14:55
LSZR 172250Z AUTO 22002KT CAVOK M02/M03 Q1024
Zeitraffer vor 3 Tagen
2019-02-16 00:14:22
LSZR 152250Z AUTO VRB01KT 9000 NCD M01/M02 Q1030